• Gossen Metrawatt
  • Camille Bauer

Workshops im Elektrogroßhandel

Diese Workshops werden vom Elektrogroßhandel eigenverantwortlich organisiert.

Die Trainer sind Mitarbeiter der GMC-I Messtechnik bzw. erfahrene selbstständige Referenten und sind stets auf dem neuesten Wissenstand. Hier erfahren Sie, welche Vorschriften einzuhalten sind und wie Sie erforderliche Messungen rationell und kostengünstig durchführen. 

Im Bedarfsfall wenden Sie sich bitte direkt an den angegebenen Ansprechpartner. 

13.01.20 Sonepar D-85053 Ingolstadt Hr. Franke 0841/96557-29 Hr. Wohlfahrt 0100-600 / 0105
14.01.20 Sonepar D-85053 Ingolstadt Hr. Franke 0841/96557-29 Hr. Wohlfahrt 0701-0702
28.01.20 Löffelhardt D-95448 Bayreuth Hr. Teupser 0921/79978-45 Hr. Wohlfahrt 0100-600 / 0105 0701-0702
10.02.20 Unielektro D-65760 Eschborn Fr. Oehler 06196/477-232 Hr. Bartelmeß 0100-600
11.02.20 Unielektro D-65760 Eschborn Fr. Oehler 06196/477-232 Hr. Bartelmeß 0701-0702
11.02.20 Sonepar D-80687 München Hr. Hirsch-Bernhardt 089/354902-207 Hr. Wohlfahrt 0701-0702
12.02.20 Sonepar D-80687 München Hr. Hirsch-Bernhardt 089/354902-207 Hr. Wohlfahrt 0100-600 / 0105
13.02.20 Sonepar D-80687 München Hr. Hirsch-Bernhardt 089/354902-207 Hr. Wohlfahrt Prüfen von E-Ladestationen
18.02.20 Unielektro D-55543 Bad Kreuznach Fr. Oehler 06196/477-232 Hr. Bartelmeß 0100-600
19.02.20 Unielektro D-55543 Bad Kreuznach Fr. Oehler 06196/477-232 Hr. Bartelmeß 0701-0702
18.02.20 EFG Gienger D-83355 Grabenstätt Hr. Buchner 0861/704-173 Hr. Wohlfahrt 0701-0702
19.02.20 EFG Gienger D-83355 Grabenstätt Hr. Buchner 0861/704-173 Hr. Wohlfahrt 0100-600 / 0105
20.02.20 EFG Gienger D-83355 Grabenstätt Hr. Buchner 0861/704-173 Hr. Wohlfahrt Prüfen von E-Ladestationen
04.03.20 Wohlfarth D-72793 Pfullingen Hr. Mollenkopf 07121-970 214 Hr. Herm 100-600 / 0105
09.03.20 Unielektro D-39124 Magdeburg Fr. Oehler 06196/477-232 Hr. Bartelmeß 0100-600
10.03.20 Unielektro D-39124 Magdeburg Fr. Oehler 06196/477-232 Hr. Bartelmeß 0701-0702
11.03.20 Unielektro D-04720 Mittenwalde Fr. Oehler 06196/477-232 Hr. Bartelmeß 0100-600
12.03.20 Unielektro D-04720 Mittenwalde Fr. Oehler 06196/477-232 Hr. Bartelmeß 0701-0702
12.03.20 FEGA & Schmitt D-74564 Crailsheim Hr. Blanck 07951/9199-25 Hr. Wohlfahrt 0100-600 / 0701-0702
18.03.20 Bürkle D-68519 Viernheim Fr. Dörsam 06204/70875-0 Hr. Herm 100-600 / 0105
19.03.20 Zajadacz D-23556 Lübeck-Roggenhorst Hr. Lohrmann 0451/87990-0 Hr. Ewers Termin abgesagt  Coronavorsichtsmaßnahme
24.03.20 FEGA & Schmitt D-93059 Regensburg Hr. Falke 0941/4024-111 Hr. Wohlfahrt 0701-0702
25.03.20 FEGA & Schmitt D-93059 Regensburg Hr. Falke 0941/4024-111 Hr. Wohlfahrt 0100-600 / 0105
26.03.20 FEGA & Schmitt D-93059 Regensburg Hr. Falke 0941/4024-111 Hr. Wohlfahrt Prüfen von E-Ladestationen
26.03.20 Bürkle D-68519 Viernheim Fr. Dörsam 06204/70875-0 Hr. Herm 0701-0702
30.03.20 REXEL D-97076 Würzburg Hr. Häusinger 0931/359538-20 Hr. Wohlfahrt 0100-600 / 0105
06.04.20 Moster D-67657 Kaiserslautern Hr. Dietrich 0631/3424-201 Hr. Herm 0100-600 / 0105
13.04.20 Moster D-67657 Kaiserslautern Hr. Dietrich 0631/3424-201 Hr. Herm 0701-0702
20.04.20 REXEL D-84030 Landshut Fr. Niksch 0871/97482661 Hr. Wohlfahrt 0701-0702
21.04.20 REXEL D-84030 Landshut Fr. Niksch 0871/97482661 Hr. Wohlfahrt 0100-600 / 0105
22.04.20 Streb D-77652 Offenburg Fr. Rösch 0781/27-112 Hr. Herm Termin abgesagt  Coronavorsichtsmaßnahme
22.04.20 FAMO D-52349 Düren Fr. Stiller 02161/8992-122 Hr. Bartelmeß 0100-600
22.04.20 Sonepar D-86154 Augsburg Fr. Harlander 0821/4104-177 Hr. Wohlfahrt 0701-0702
23.04.20 Sonepar D-86154 Augsburg Fr. Harlander 0821/4104-177 Hr. Wohlfahrt 0100-600 / 0105
27.04.20 Kluxen D-22047 Hamburg-Wandsbek Fr. Oehler 06196/477-232 Hr. Bartelmeß 0100-600
28.04.20 Kluxen D-22047 Hamburg-Wandsbek Fr. Oehler 06196/477-232 Hr. Bartelmeß 0701-0702
29.04.20 Streb D-77652 Offenburg Fr. Rösch 0781/27-112 Hr. Herm Termin abgesagt  Coronavorsichtsmaßnahme
29.04.20 REXEL D-94315 Straubing Hr. Knaus 09421/548-24 Hr. Wohlfahrt 0701-0702
30.04.20 REXEL D-94315 Straubing Hr. Knaus 09421/548-24 Hr. Wohlfahrt 0100-600 / 0105
30.04.20 Hillmann & Ploog D-22159 Hamburg-Farmsen Hr. Schmidt 040/64588-0 Hr. Ewers 0100-600 / 0701-0702
12.05.20 Hillmann & Ploog D-18069 Rostock Hr. Schumacher 0381/202606-10 Hr. Körner Termin abgesagt  Coronavorsichtsmaßnahme
20.05.20 Zajadacz D-24109 Kiel Hr. Seraphin 0431/58797-0 Hr. Ewers 0100-600 & Geräte-Einweisung
20.05.20 Sonepar D-73730 Esslingen Hr. Schill 0711/931857-15 Hr. Herm 0100-600 / 0105
27.05.20 Sonepar D-73730 Esslingen Hr. Schill 0711/931857-15 Hr. Herm 0701-0702
27.05.20 Unielektro D-65760 Eschborn Fr. Oehler 06196/477-232 Hr. Bartelmeß 0100-600
28.05.20 Unielektro D-65760 Eschborn Fr. Oehler 06196/477-232 Hr. Bartelmeß 0701-0702
24.06.20 Unielektro D-51105 Köln Fr. Oehler 06196/477-232 Hr. Bartelmeß 0100-600
25.06.20 Unielektro D-51105 Köln Fr. Oehler 06196/477-232 Hr. Bartelmeß 0701-0702
06.07.20 REXEL D-84030 Landshut Fr. Niksch 0871/97482661 Hr. Wohlfahrt 0701-0702
07.07.20 REXEL D-84030 Landshut Fr. Niksch 0871/97482661 Hr. Wohlfahrt 0100-600 / 0105
08.07.20 REXEL D-83026 Rosenheim Hr. Staber 08031/2459-47 Hr. Wohlfahrt 0701-0702
09.07.20 REXEL D-83278 Traunstein Hr. Staber 08031/2459-47 Hr. Wohlfahrt 0100-600 / 0701-0702
13.07.20 Unielektro D-99098 Erfurt Fr. Oehler 06196/477-232 Hr. Bartelmeß 0100-600
14.07.20 Unielektro D-99098 Erfurt Fr. Oehler 06196/477-232 Hr. Bartelmeß 0701-0702
15.07.20 Unielektro D-08525 Plauen Fr. Oehler 06196/477-232 Hr. Bartelmeß 0100-600
16.07.20 Unielektro D-08525 Plauen Fr. Oehler 06196/477-232 Hr. Bartelmeß 0701-0702
01.09.20 Unielektro D-65760 Eschborn Fr. Oehler 06196/477-232 Hr. Bartelmeß 0100-600
02.09.20 Unielektro D-65760 Eschborn Fr. Oehler 06196/477-232 Hr. Bartelmeß 0701-0702
08.09.20 Unielektro D-56070 Koblenz Fr. Oehler 06196/477-232 Hr. Bartelmeß 0100-600
09.09.20 Unielektro D-56070 Koblenz Fr. Oehler 06196/477-232 Hr. Bartelmeß 0701-0702
14.09.20 FEGA & Schmitt D-93059 Regensburg Hr. Falke 0941/4024-111 Hr. Wohlfahrt 0701-0702
15.09.20 FEGA & Schmitt D-93059 Regensburg Hr. Falke 0941/4024-111 Hr. Wohlfahrt 0100-600 / 0105
16.09.20 FEGA & Schmitt D-93059 Regensburg Hr. Falke 0941/4024-111 Hr. Wohlfahrt Prüfen von E-Ladestationen
16.09.20 FEGA & Schmitt D-76829 Landau Hr. Hirsch 06341/9209-55 Hr. Herm 0100-600 / 0105
23.09.20 FEGA & Schmitt D-76829 Landau Hr. Hirsch 06341/9209-55 Hr. Herm 0701-0702
22.09.20 Unielektro D-35440 Linden Fr. Oehler 06196/477-232 Hr. Bartelmeß 0100-600
23.09.20 Unielektro D-35440 Linden Fr. Oehler 06196/477-232 Hr. Bartelmeß 0701-0702
30.09.20 Mettler D-66117 Saarbrücken Hr. Heinen 0681/5803-112 Hr. Herm 0100-600 / 0105
15.10.20 Mettler D-66117 Saarbrücken Hr. Heinen 0681/5803-112 Hr. Herm 0701-0702
20.10.20 FAMO D-52349 Düren Fr. Stiller 02161/8992-122 Hr. Bartelmeß 0701-0702
21.10.20 Unielektro D-68163 Mannheim Fr. Oehler 06196/477-232 Hr. Bartelmeß 0100-600
22.10.20 Unielektro D-68163 Mannheim Fr. Oehler 06196/477-232 Hr. Bartelmeß 0701-0702
27.10.20 Unielektro D-65760 Eschborn Fr. Oehler 06196/477-232 Hr. Bartelmeß 0100-600
28.10.20 Unielektro D-65760 Eschborn Fr. Oehler 06196/477-232 Hr. Bartelmeß 0701-0702
28.10.20 Streb D-77652 Offenburg Fr. Rösch 0781/27-112 Hr. Herm 0100-600 / 0105
04.11.20 Streb D-77652 Offenburg Fr. Rösch 0781/27-112 Hr. Herm 0701-0702
11.11.20 Moster D-67657 Kauserslautern Hr. Dietrich 0631/3424-201 Hr. Herm 0100-600 / 0105
18.11.20 Moster D-67657 Kaiserslauteren Hr. Dietrich 0631/3424-201 Hr. Herm 0701-0702
17.11.20 Unielektro D-04720 Mittenwalde Fr. Oehler 06196/477-232 Hr. Bartelmeß 0100-600
18.11.20 Unielektro D-04720 Mittenwalde Fr. Oehler 06196/477-232 Hr. Bartelmeß 0701-0702
19.11.20 Unielektro D-01277 Dresden Fr. Oehler 06196/477-232 Hr. Bartelmeß 0100-600
20.11.20 Unielektro D-01277 Dresden Fr. Oehler 06196/477-232 Hr. Bartelmeß 0701-0702
24.11.20 FAMO D-41179 mönchengladbach Fr. Stiller 02161/8992-122 Hr. Bartelmeß 0701-0702
01.12.20 Unielektro D-65760 Eschborn Fr. Oehler 06196/477-232 Hr. Bartelmeß 0100-600
02.12.20 Unielektro D-65760 Eschborn Fr. Oehler 06196/477-232 Hr. Bartelmeß 0701-0702
10.12.10 EBRA D-63924 Kleinheubach Hr. Müller 09371/4098-38 Hr. Bartelmeß 0701-0702

 

Dialog, Infos und Aktionen: